Barryton, Michigan
Current Conditions -  °F | °C
As of 6:14 PM on Tuesday 25 Nov 2014 (Local Time) from KRQB Reporting Station
Overcast Overcast  
Wind Chill: 20°   Ceiling: 2400
Heat Index: 28°   Visibility: 10mi
Dew Point: 25°   Wind: 7mph
Humidity: 90%   Direction: 270°W
Pressure: 30.08"   Gusts: NA
Location:  43.75°N, 85.15°W
Report Text: KRQB 252314Z AUTO 27006KT 10SM OVC024 M02/M04 A3008 RMK AO2 T10251040
Loading
Personal Weather Stations






























Interactive Weather Map New forecast layout! Learn more

10-Day Weather Forecast

Advertisements
Track Severe Weather on mobile